Time;durP1;ratioP1;P1;durP2;ratioP2;P2;SDS_P1;SDS_P2;PMS_P1;PMS_P2;Temp;Humidity;BMP_temperature;BMP_pressure;BME280_temperature;BME280_humidity;BME280_pressure;Samples;Min_cycle;Max_cycle;Signal;HPM_P1;HPM_P2
2023/04/06 00:00:40;;;;;;;13.88;8.38;;;7.20;91.90;;;;;;6204705;23;20012;-90
2023/04/06 00:03:06;;;;;;;17.08;9.43;;;7.20;92.10;;;;;;6225724;23;20004;-90
2023/04/06 00:05:31;;;;;;;16.55;9.80;;;7.20;92.40;;;;;;6224595;23;20008;-91
2023/04/06 00:07:58;;;;;;;15.63;9.82;;;7.20;92.70;;;;;;6223510;23;20444;-90
2023/04/06 00:10:24;;;;;;;18.05;9.55;;;7.20;92.80;;;;;;6225003;23;20008;-90
2023/04/06 00:12:50;;;;;;;15.38;8.93;;;7.10;93.20;;;;;;6225480;23;20054;-89
2023/04/06 00:15:16;;;;;;;14.02;9.02;;;7.10;93.10;;;;;;6224524;23;20008;-88
2023/04/06 00:17:42;;;;;;;13.10;8.65;;;7.10;93.10;;;;;;6227130;23;20071;-86
2023/04/06 00:20:08;;;;;;;14.57;8.70;;;7.00;93.00;;;;;;6236271;23;20000;-86
2023/04/06 00:22:36;;;;;;;13.23;8.57;;;7.00;93.00;;;;;;6260134;23;20327;-87
2023/04/06 00:25:08;;;;;;;14.82;8.30;;;7.00;93.40;;;;;;6235853;22;20387;-87
2023/04/06 00:27:34;;;;;;;14.95;8.40;;;6.90;93.30;;;;;;6232543;23;20020;-88
2023/04/06 00:30:00;;;;;;;14.65;9.57;;;6.90;93.20;;;;;;6230025;23;20083;-94
2023/04/06 00:32:26;;;;;;;14.88;7.97;;;6.80;93.10;;;;;;6226005;23;20004;-88
2023/04/06 00:34:51;;;;;;;15.85;9.25;;;6.80;93.10;;;;;;6230130;23;20095;-89
2023/04/06 00:37:17;;;;;;;13.65;8.70;;;6.70;93.60;;;;;;6229899;23;20008;-88
2023/04/06 00:39:43;;;;;;;12.05;8.00;;;6.70;94.20;;;;;;6228934;23;20005;-88
2023/04/06 00:42:13;;;;;;;14.15;8.65;;;6.70;94.50;;;;;;6234375;23;20011;-94
2023/04/06 00:44:40;;;;;;;13.23;8.70;;;6.70;94.50;;;;;;6237587;23;20095;-93
2023/04/06 00:47:06;;;;;;;13.13;8.68;;;6.70;94.70;;;;;;6251513;23;20000;-92
2023/04/06 00:49:33;;;;;;;12.43;8.85;;;6.60;94.70;;;;;;6225742;23;20019;-93
2023/04/06 00:51:59;;;;;;;13.13;8.65;;;6.60;95.10;;;;;;6248794;23;20057;-94
2023/04/06 00:54:25;;;;;;;15.43;9.57;;;6.60;95.60;;;;;;6223267;23;20383;-93
2023/04/06 00:56:51;;;;;;;14.60;8.90;;;6.50;95.60;;;;;;6223445;23;20427;-89
2023/04/06 00:59:17;;;;;;;14.65;8.60;;;6.50;95.70;;;;;;6222764;23;20107;-88
2023/04/06 01:01:43;;;;;;;15.23;8.68;;;6.50;96.20;;;;;;6222825;23;20008;-89
2023/04/06 01:04:09;;;;;;;12.85;8.80;;;6.50;96.40;;;;;;6223275;23;20008;-92
2023/04/06 01:06:35;;;;;;;18.40;10.23;;;6.50;96.70;;;;;;6223762;23;20032;-93
2023/04/06 01:09:00;;;;;;;13.57;9.05;;;6.40;97.20;;;;;;6199375;23;20015;-92
2023/04/06 01:11:26;;;;;;;13.13;8.88;;;6.40;97.50;;;;;;6252269;23;20502;-93
2023/04/06 01:14:08;;;;;;;13.60;9.10;;;6.40;97.70;;;;;;6249868;23;20004;-90
2023/04/06 01:16:43;;;;;;;14.77;9.60;;;6.40;98.10;;;;;;6222432;23;20004;-90
2023/04/06 01:19:23;;;;;;;13.93;9.13;;;6.40;98.10;;;;;;6224136;23;20007;-92
2023/04/06 01:21:50;;;;;;;16.55;9.90;;;6.30;98.00;;;;;;6252601;23;19996;-92
2023/04/06 01:24:16;;;;;;;15.38;8.82;;;6.40;98.30;;;;;;6225425;23;20008;-93
2023/04/06 01:26:42;;;;;;;14.48;8.73;;;6.30;98.20;;;;;;6229164;22;20093;-92
2023/04/06 01:29:08;;;;;;;15.50;8.80;;;6.30;98.30;;;;;;6229505;22;20050;-93
2023/04/06 01:31:37;;;;;;;15.25;8.80;;;6.30;98.40;;;;;;6205114;22;20334;-94
2023/04/06 01:34:03;;;;;;;15.13;9.05;;;6.30;98.70;;;;;;6229099;22;20125;-93
2023/04/06 01:36:29;;;;;;;13.55;8.95;;;6.20;98.80;;;;;;6253179;22;19999;-91
2023/04/06 01:38:55;;;;;;;13.65;8.68;;;6.20;99.00;;;;;;6202212;22;20000;-90
2023/04/06 01:41:21;;;;;;;13.45;8.88;;;6.20;98.80;;;;;;6227327;22;20065;-90
2023/04/06 01:43:48;;;;;;;14.25;9.00;;;6.20;98.90;;;;;;6202643;22;20061;-90
2023/04/06 01:46:14;;;;;;;15.27;8.68;;;6.10;98.90;;;;;;6202635;22;20104;-89
2023/04/06 01:48:40;;;;;;;13.93;9.18;;;6.10;99.10;;;;;;6227403;22;20008;-89
2023/04/06 01:51:06;;;;;;;17.45;9.50;;;6.10;99.20;;;;;;6201839;22;20008;-90
2023/04/06 01:53:32;;;;;;;15.27;8.85;;;6.10;99.50;;;;;;6228111;22;20011;-92
2023/04/06 01:55:58;;;;;;;14.80;9.23;;;6.10;99.60;;;;;;6253227;22;19996;-92
2023/04/06 01:58:23;;;;;;;14.93;9.27;;;6.00;99.80;;;;;;6203448;22;20018;-93
2023/04/06 02:00:49;;;;;;;14.80;9.05;;;6.00;99.90;;;;;;6228047;22;20133;-93
2023/04/06 02:03:15;;;;;;;14.10;9.23;;;6.00;99.80;;;;;;6227682;22;20004;-93
2023/04/06 02:05:41;;;;;;;15.70;9.77;;;5.90;99.90;;;;;;6253535;22;20053;-93
2023/04/06 02:08:07;;;;;;;13.70;8.95;;;5.90;99.90;;;;;;6228612;22;20091;-92
2023/04/06 02:10:34;;;;;;;16.73;9.20;;;5.90;99.90;;;;;;6237864;22;20030;-88
2023/04/06 02:13:00;;;;;;;13.70;9.05;;;5.90;99.90;;;;;;6261706;22;19996;-87
2023/04/06 02:15:27;;;;;;;15.20;8.77;;;5.80;99.90;;;;;;6257685;22;19996;-90
2023/04/06 02:17:53;;;;;;;15.40;9.75;;;5.80;99.90;;;;;;6251930;22;20094;-90
2023/04/06 02:20:19;;;;;;;14.98;9.90;;;5.90;99.90;;;;;;6226437;22;20023;-88
2023/04/06 02:22:44;;;;;;;15.93;9.93;;;5.80;99.90;;;;;;6251994;22;20007;-89
2023/04/06 02:25:10;;;;;;;17.70;9.55;;;5.80;99.90;;;;;;6226403;22;20032;-93
2023/04/06 02:27:36;;;;;;;13.88;9.32;;;5.80;99.90;;;;;;6199806;23;20347;-89
2023/04/06 02:30:06;;;;;;;18.17;9.32;;;5.80;99.90;;;;;;6247078;23;20004;-89
2023/04/06 02:32:31;;;;;;;14.43;10.18;;;5.80;99.90;;;;;;6246853;23;20035;-87
2023/04/06 02:34:57;;;;;;;16.13;9.40;;;5.80;99.90;;;;;;6246434;23;20335;-88
2023/04/06 02:37:23;;;;;;;14.35;9.35;;;5.80;99.90;;;;;;6246952;23;20030;-88
2023/04/06 02:39:49;;;;;;;16.80;9.40;;;5.80;99.90;;;;;;6247329;23;20075;-93
2023/04/06 02:42:16;;;;;;;15.80;10.07;;;5.80;99.90;;;;;;6224465;23;20091;-93
2023/04/06 02:44:42;;;;;;;15.02;9.50;;;5.70;99.90;;;;;;6221902;23;20012;-90
2023/04/06 02:47:08;;;;;;;15.38;9.68;;;5.80;99.90;;;;;;6221883;23;20411;-89
2023/04/06 02:49:34;;;;;;;15.20;9.80;;;5.70;99.90;;;;;;6221413;23;20090;-88
2023/04/06 02:51:59;;;;;;;16.13;10.05;;;5.70;99.90;;;;;;6221715;23;20011;-90
2023/04/06 02:54:25;;;;;;;17.60;10.50;;;5.70;99.90;;;;;;6222250;23;20008;-93
2023/04/06 02:56:51;;;;;;;15.60;10.35;;;5.70;99.90;;;;;;6221562;23;20091;-93
2023/04/06 02:59:17;;;;;;;14.25;10.02;;;5.70;99.90;;;;;;6202091;23;20016;-89
2023/04/06 03:01:45;;;;;;;16.05;9.95;;;5.70;99.90;;;;;;6226405;23;20012;-89
2023/04/06 03:04:12;;;;;;;14.82;9.77;;;5.70;99.90;;;;;;6223100;23;20458;-90
2023/04/06 03:06:37;;;;;;;16.27;10.23;;;5.70;99.90;;;;;;6220859;23;20024;-90
2023/04/06 03:09:03;;;;;;;15.18;9.85;;;5.70;99.90;;;;;;6229734;23;20042;-94
2023/04/06 03:11:29;;;;;;;15.60;10.88;;;5.70;99.90;;;;;;6237101;23;20008;-93
2023/04/06 03:13:55;;;;;;;17.67;10.55;;;5.70;99.90;;;;;;6252777;23;20057;-94
2023/04/06 03:16:21;;;;;;;16.85;9.38;;;5.60;99.90;;;;;;6224711;23;20024;-94
2023/04/06 03:18:49;;;;;;;16.75;10.57;;;5.60;99.90;;;;;;6223138;23;20012;-93
2023/04/06 03:21:21;;;;;;;18.05;10.43;;;5.70;99.90;;;;;;6221917;23;20004;-93
2023/04/06 03:23:50;;;;;;;15.25;9.68;;;5.70;99.90;;;;;;6222691;23;20011;-92
2023/04/06 03:26:16;;;;;;;16.88;10.23;;;5.70;99.90;;;;;;6222404;23;20020;-94
2023/04/06 03:28:42;;;;;;;14.20;9.45;;;5.70;99.90;;;;;;6222543;23;20015;-94
2023/04/06 03:31:08;;;;;;;16.02;9.82;;;5.70;99.90;;;;;;6247954;23;20004;-93
2023/04/06 03:33:34;;;;;;;13.85;9.57;;;5.70;99.90;;;;;;6222716;23;20012;-92
2023/04/06 03:36:00;;;;;;;17.60;9.95;;;5.70;99.90;;;;;;6222752;23;20087;-94
2023/04/06 03:38:25;;;;;;;14.38;9.20;;;5.70;99.90;;;;;;6223488;23;20015;-90
2023/04/06 03:40:51;;;;;;;15.15;9.50;;;5.70;99.90;;;;;;6248223;23;20000;-89
2023/04/06 03:43:17;;;;;;;17.33;9.90;;;5.70;99.90;;;;;;6222559;23;20095;-89
2023/04/06 03:45:43;;;;;;;17.13;10.00;;;5.70;99.90;;;;;;6220755;23;20004;-89
2023/04/06 03:48:08;;;;;;;18.70;9.40;;;5.70;99.90;;;;;;6197263;23;20011;-94
2023/04/06 03:50:36;;;;;;;17.25;9.38;;;5.60;99.90;;;;;;6222588;23;20000;-93
2023/04/06 03:53:02;;;;;;;14.70;9.68;;;5.70;99.90;;;;;;6247331;23;20008;-89
2023/04/06 03:55:31;;;;;;;16.10;9.45;;;5.70;99.90;;;;;;6248445;23;20005;-94
2023/04/06 03:57:57;;;;;;;16.17;9.68;;;5.60;99.90;;;;;;6227001;23;20000;-91
2023/04/06 04:00:29;;;;;;;17.40;9.80;;;5.60;99.90;;;;;;6224956;23;20007;-92
2023/04/06 04:02:55;;;;;;;19.83;10.30;;;5.60;99.90;;;;;;6222783;23;20080;-89
2023/04/06 04:05:30;;;;;;;14.82;9.63;;;5.60;99.90;;;;;;6220640;23;20036;-90
2023/04/06 04:07:55;;;;;;;17.10;9.80;;;5.60;99.90;;;;;;6221012;23;20019;-90
2023/04/06 04:10:21;;;;;;;18.08;11.23;;;5.60;99.90;;;;;;6221328;23;20032;-91
2023/04/06 04:12:47;;;;;;;18.63;10.45;;;5.60;99.90;;;;;;6228762;23;20090;-91
2023/04/06 04:15:13;;;;;;;19.45;10.95;;;5.60;99.90;;;;;;6196376;23;20332;-91
2023/04/06 04:17:38;;;;;;;17.52;10.20;;;5.50;99.90;;;;;;6221659;23;20427;-90
2023/04/06 04:20:05;;;;;;;19.48;11.35;;;5.60;99.90;;;;;;6222346;23;20007;-91
2023/04/06 04:22:31;;;;;;;17.63;10.07;;;5.60;99.90;;;;;;6246890;23;20007;-95
2023/04/06 04:24:57;;;;;;;21.17;10.70;;;5.60;99.90;;;;;;6248147;23;20004;-95
2023/04/06 04:27:25;;;;;;;15.57;10.10;;;5.60;99.90;;;;;;6247642;23;20027;-94
2023/04/06 04:29:51;;;;;;;17.77;11.68;;;5.50;99.90;;;;;;6221723;23;20062;-91
2023/04/06 04:32:16;;;;;;;18.23;10.60;;;5.60;99.90;;;;;;6221738;23;20008;-94
2023/04/06 04:34:42;;;;;;;15.80;10.57;;;5.50;99.90;;;;;;6246981;23;20007;-92
2023/04/06 04:37:08;;;;;;;21.25;11.85;;;5.50;99.90;;;;;;6248395;23;20000;-94
2023/04/06 04:39:33;;;;;;;18.30;10.45;;;5.50;99.90;;;;;;6199639;23;20126;-92
2023/04/06 04:41:59;;;;;;;17.33;10.57;;;5.50;99.90;;;;;;6248264;23;20086;-88
2023/04/06 04:44:25;;;;;;;15.68;10.25;;;5.50;99.90;;;;;;6198129;23;20031;-92
2023/04/06 04:47:20;;;;;;;15.88;10.45;;;5.50;99.90;;;;;;6223315;23;20011;-89
2023/04/06 04:49:46;;;;;;;17.17;10.50;;;5.50;99.90;;;;;;6213762;23;20008;-90
2023/04/06 04:52:12;;;;;;;19.33;10.52;;;5.50;99.90;;;;;;6225454;23;20016;-90
2023/04/06 04:54:38;;;;;;;16.55;10.20;;;5.50;99.90;;;;;;6201855;23;20012;-90
2023/04/06 04:57:04;;;;;;;20.67;10.40;;;5.50;99.90;;;;;;6225529;23;20008;-94
2023/04/06 04:59:30;;;;;;;16.75;10.95;;;5.50;99.90;;;;;;6223845;23;20423;-94
2023/04/06 05:01:59;;;;;;;17.98;10.73;;;5.50;99.90;;;;;;6251196;23;20007;-95
2023/04/06 05:04:24;;;;;;;17.48;10.63;;;5.50;99.90;;;;;;6198822;23;20095;-94
2023/04/06 05:06:50;;;;;;;19.40;11.27;;;5.50;99.90;;;;;;6198581;23;20106;-94
2023/04/06 05:09:17;;;;;;;19.20;11.02;;;5.50;99.90;;;;;;6223547;23;20066;-93
2023/04/06 05:11:43;;;;;;;18.15;10.57;;;5.50;99.90;;;;;;6225292;23;20019;-94
2023/04/06 05:14:09;;;;;;;18.38;11.93;;;5.50;99.90;;;;;;6248026;23;20008;-88
2023/04/06 05:16:35;;;;;;;16.80;10.52;;;5.50;99.90;;;;;;6248869;23;20090;-88
2023/04/06 05:19:01;;;;;;;17.73;11.05;;;5.50;99.90;;;;;;6248443;23;20000;-93
2023/04/06 05:21:27;;;;;;;20.05;10.68;;;5.50;99.90;;;;;;6223904;23;20011;-93
2023/04/06 05:24:12;;;;;;;;;;;;;;;;;;;;;
2023/04/06 05:30:47;;;;;;;17.45;9.55;;;5.50;99.90;;;;;;6150541;23;20019;-89
2023/04/06 05:33:13;;;;;;;16.63;10.55;;;5.40;99.90;;;;;;6161749;23;20016;-90
2023/04/06 05:35:39;;;;;;;17.48;10.80;;;5.50;99.90;;;;;;6137178;23;20005;-89
2023/04/06 05:38:07;;;;;;;19.63;11.75;;;5.50;99.90;;;;;;6162048;23;20059;-91
2023/04/06 05:40:38;;;;;;;17.17;10.88;;;5.50;99.90;;;;;;6161647;23;20420;-91
2023/04/06 05:43:06;;;;;;;16.95;10.73;;;5.50;99.90;;;;;;6162856;23;20110;-91
2023/04/06 05:45:32;;;;;;;18.65;11.40;;;5.50;99.90;;;;;;6163931;23;20052;-92
2023/04/06 05:47:58;;;;;;;17.75;11.25;;;5.50;99.90;;;;;;6138849;23;20008;-92
2023/04/06 05:50:24;;;;;;;19.17;12.05;;;5.50;99.90;;;;;;6187283;23;20009;-93
2023/04/06 05:52:49;;;;;;;18.67;11.40;;;5.50;99.90;;;;;;6162013;23;20013;-93
2023/04/06 05:55:15;;;;;;;17.73;10.88;;;5.50;99.90;;;;;;6161560;23;20013;-92
2023/04/06 05:57:41;;;;;;;21.85;11.02;;;5.50;99.90;;;;;;6210696;23;20400;-93
2023/04/06 06:00:09;;;;;;;19.70;11.57;;;5.60;99.90;;;;;;6222067;23;20003;-94
2023/04/06 06:02:35;;;;;;;18.17;11.25;;;5.60;99.90;;;;;;6199311;23;20441;-93
2023/04/06 06:05:01;;;;;;;19.70;10.82;;;5.60;99.90;;;;;;6178210;23;20027;-91
2023/04/06 06:07:27;;;;;;;18.92;11.48;;;5.60;99.90;;;;;;6183165;23;20039;-94
2023/04/06 06:09:53;;;;;;;19.23;10.73;;;5.60;99.90;;;;;;6216168;23;20071;-94
2023/04/06 06:12:22;;;;;;;17.23;10.95;;;5.60;99.90;;;;;;6241461;23;20004;-91
2023/04/06 06:14:48;;;;;;;20.63;11.80;;;5.70;99.90;;;;;;6232917;23;20087;-89
2023/04/06 06:17:15;;;;;;;23.02;11.55;;;5.70;99.90;;;;;;6224033;23;20007;-90
2023/04/06 06:19:41;;;;;;;18.02;11.73;;;5.70;99.90;;;;;;6224942;23;20000;-93
2023/04/06 06:22:06;;;;;;;20.73;11.35;;;5.70;99.90;;;;;;6224355;23;20008;-95
2023/04/06 06:24:33;;;;;;;18.67;11.25;;;5.80;99.90;;;;;;6201486;23;20012;-94
2023/04/06 06:26:59;;;;;;;21.55;10.93;;;5.80;99.90;;;;;;6224280;23;20004;-90
2023/04/06 06:29:24;;;;;;;23.45;11.60;;;5.90;99.90;;;;;;6203957;23;20435;-91
2023/04/06 06:31:50;;;;;;;20.40;11.98;;;5.80;99.90;;;;;;6248474;23;20004;-91
2023/04/06 06:34:16;;;;;;;23.20;12.02;;;5.90;99.90;;;;;;6249054;23;20012;-90
2023/04/06 06:36:42;;;;;;;21.23;11.10;;;5.90;99.90;;;;;;6236783;23;19991;-94
2023/04/06 06:39:07;;;;;;;21.73;11.93;;;5.90;99.90;;;;;;6228610;23;20011;-95
2023/04/06 06:41:33;;;;;;;19.13;11.73;;;6.00;99.90;;;;;;6225697;23;20015;-94
2023/04/06 06:43:59;;;;;;;21.55;12.07;;;6.00;99.90;;;;;;6201025;23;20098;-96
2023/04/06 06:46:25;;;;;;;19.95;11.05;;;6.10;99.90;;;;;;6201170;23;20027;-96
2023/04/06 06:48:51;;;;;;;21.17;11.93;;;6.10;99.90;;;;;;6250097;23;20019;-94
2023/04/06 06:51:30;;;;;;;21.98;11.68;;;6.20;99.90;;;;;;6249910;23;20008;-95
2023/04/06 06:54:02;;;;;;;19.75;10.90;;;6.20;99.90;;;;;;6234148;23;20094;-95
2023/04/06 06:56:27;;;;;;;20.75;12.15;;;6.30;99.90;;;;;;6235777;22;20041;-94
2023/04/06 06:58:53;;;;;;;19.30;11.27;;;6.40;99.90;;;;;;6248433;22;20095;-92
2023/04/06 07:01:20;;;;;;;19.85;12.02;;;6.40;99.90;;;;;;6272690;22;20016;-91
2023/04/06 07:03:45;;;;;;;22.58;12.23;;;6.50;99.90;;;;;;6248047;22;19988;-92
2023/04/06 07:06:11;;;;;;;27.38;11.75;;;6.50;99.90;;;;;;6246762;23;20018;-90
2023/04/06 07:08:37;;;;;;;25.13;11.65;;;6.50;99.30;;;;;;6223202;23;20007;-94
2023/04/06 07:11:04;;;;;;;23.70;11.65;;;6.60;99.40;;;;;;6198298;23;20087;-94
2023/04/06 07:13:30;;;;;;;33.45;13.75;;;6.60;99.00;;;;;;6223482;23;20427;-89
2023/04/06 07:15:55;;;;;;;20.05;11.60;;;6.60;98.60;;;;;;6225260;23;20010;-95
2023/04/06 07:18:22;;;;;;;23.15;11.18;;;6.70;98.70;;;;;;6197723;23;20431;-95
2023/04/06 07:20:49;;;;;;;21.10;12.88;;;6.70;98.40;;;;;;6248484;23;20036;-94
2023/04/06 07:23:15;;;;;;;23.30;11.93;;;6.80;98.40;;;;;;6247575;23;19996;-95
2023/04/06 07:25:42;;;;;;;20.80;12.13;;;6.80;98.40;;;;;;6222961;23;20009;-90
2023/04/06 07:28:08;;;;;;;22.58;12.40;;;6.90;98.30;;;;;;6198320;23;20004;-91
2023/04/06 07:30:49;;;;;;;20.35;12.30;;;7.00;98.50;;;;;;6253390;22;20018;-90
2023/04/06 07:33:15;;;;;;;18.48;11.77;;;7.00;98.20;;;;;;6252647;22;20106;-90
2023/04/06 07:35:41;;;;;;;19.63;11.68;;;7.10;98.30;;;;;;6254885;22;20284;-89
2023/04/06 07:38:06;;;;;;;20.67;11.95;;;7.10;97.70;;;;;;6252394;22;20304;-90
2023/04/06 07:40:32;;;;;;;22.25;12.75;;;7.20;97.90;;;;;;6251907;22;20086;-89
2023/04/06 07:42:58;;;;;;;20.25;11.70;;;7.20;98.00;;;;;;6228737;22;20437;-87
2023/04/06 07:45:24;;;;;;;20.02;11.32;;;7.30;98.10;;;;;;6256114;22;20018;-90
2023/04/06 07:47:50;;;;;;;23.40;12.13;;;7.40;98.10;;;;;;6232282;22;20036;-90
2023/04/06 07:50:16;;;;;;;20.42;10.73;;;7.40;98.10;;;;;;6226440;22;20011;-88
2023/04/06 07:52:42;;;;;;;20.35;11.65;;;7.40;97.70;;;;;;6226694;22;20097;-89
2023/04/06 07:55:08;;;;;;;23.48;13.70;;;7.50;97.30;;;;;;6226287;22;20303;-87
2023/04/06 07:57:34;;;;;;;17.85;11.68;;;7.50;97.10;;;;;;6251161;22;20064;-90
2023/04/06 08:00:00;;;;;;;24.40;12.07;;;7.60;97.20;;;;;;6201714;22;20026;-93
2023/04/06 08:02:26;;;;;;;20.75;11.50;;;7.70;97.10;;;;;;6252913;22;20047;-91
2023/04/06 08:04:52;;;;;;;21.88;12.02;;;7.70;97.00;;;;;;6227464;22;20003;-96
2023/04/06 08:07:18;;;;;;;21.65;10.90;;;7.80;97.10;;;;;;6227513;22;20018;-95
2023/04/06 08:09:43;;;;;;;20.63;11.77;;;7.80;96.80;;;;;;6252800;22;20018;-95
2023/04/06 08:12:09;;;;;;;18.23;11.73;;;7.90;96.30;;;;;;6253084;22;20062;-95
2023/04/06 08:14:35;;;;;;;20.67;11.93;;;7.90;95.80;;;;;;6253636;22;20014;-92
2023/04/06 08:17:01;;;;;;;19.10;11.48;;;8.00;95.50;;;;;;6254943;22;20004;-90
2023/04/06 08:19:27;;;;;;;18.52;11.48;;;8.00;95.80;;;;;;6256146;22;20010;-93
2023/04/06 08:21:52;;;;;;;19.25;12.10;;;8.10;95.70;;;;;;6257358;22;20027;-93
2023/04/06 08:24:18;;;;;;;19.45;11.43;;;8.10;95.80;;;;;;6235415;22;20004;-93
2023/04/06 08:26:44;;;;;;;22.52;11.60;;;8.20;96.10;;;;;;6268824;22;20004;-91
2023/04/06 08:29:10;;;;;;;19.52;11.55;;;8.20;96.00;;;;;;6252213;22;19996;-91
2023/04/06 08:31:36;;;;;;;22.77;12.73;;;8.20;95.70;;;;;;6253877;22;19999;-92
2023/04/06 08:34:05;;;;;;;19.88;11.40;;;8.20;95.90;;;;;;6289814;22;20000;-90
2023/04/06 08:36:30;;;;;;;19.88;11.38;;;8.30;96.10;;;;;;6261521;22;20024;-91
2023/04/06 08:38:57;;;;;;;20.17;12.98;;;8.30;95.70;;;;;;6262949;22;20026;-92
2023/04/06 08:41:24;;;;;;;21.92;12.30;;;8.30;95.70;;;;;;6259815;22;20007;-93
2023/04/06 08:43:56;;;;;;;24.13;12.18;;;8.40;95.70;;;;;;6230443;22;20031;-92
2023/04/06 08:46:29;;;;;;;18.55;11.65;;;8.40;96.00;;;;;;6253555;22;20065;-91
2023/04/06 08:48:56;;;;;;;20.33;12.10;;;8.50;96.40;;;;;;6252248;22;20004;-90
2023/04/06 08:51:26;;;;;;;20.30;11.95;;;8.50;96.20;;;;;;6253866;22;20422;-95
2023/04/06 08:53:54;;;;;;;20.98;11.50;;;8.60;96.20;;;;;;6254620;22;20004;-96
2023/04/06 08:56:25;;;;;;;20.60;13.40;;;8.60;96.30;;;;;;6205080;22;20390;-95
2023/04/06 08:58:51;;;;;;;21.07;12.67;;;8.70;96.10;;;;;;6230176;22;20110;-95
2023/04/06 09:01:21;;;;;;;21.23;12.18;;;8.70;96.20;;;;;;6229189;22;20071;-95
2023/04/06 09:03:49;;;;;;;23.52;12.23;;;8.80;96.40;;;;;;6254142;22;20087;-95
2023/04/06 09:06:15;;;;;;;18.98;11.80;;;8.80;94.60;;;;;;6253555;22;20008;-90
2023/04/06 09:08:41;;;;;;;22.25;12.07;;;8.90;95.30;;;;;;6253499;22;20379;-88
2023/04/06 09:11:08;;;;;;;19.27;12.07;;;8.90;95.30;;;;;;6202572;22;20015;-89
2023/04/06 09:13:53;;;;;;;20.17;12.43;;;9.00;95.50;;;;;;6252728;22;20461;-89
2023/04/06 09:16:20;;;;;;;18.70;11.80;;;9.10;95.60;;;;;;6253645;22;20003;-92
2023/04/06 09:18:46;;;;;;;23.00;13.38;;;9.20;95.40;;;;;;6202494;22;20094;-92
2023/04/06 09:21:12;;;;;;;26.48;14.63;;;9.30;95.10;;;;;;6227984;22;20034;-91
2023/04/06 09:23:39;;;;;;;21.63;13.60;;;9.30;94.40;;;;;;6254248;22;20078;-91
2023/04/06 09:26:09;;;;;;;22.85;13.77;;;9.40;93.50;;;;;;6235999;22;20015;-91
2023/04/06 09:28:56;;;;;;;21.53;13.63;;;9.50;93.40;;;;;;6260916;22;20032;-90
2023/04/06 09:31:27;;;;;;;22.55;14.25;;;9.50;92.40;;;;;;6260714;22;20277;-91
2023/04/06 09:33:53;;;;;;;23.45;13.27;;;9.60;93.10;;;;;;6261970;22;20008;-91
2023/04/06 09:36:19;;;;;;;22.77;14.43;;;9.60;92.80;;;;;;6233584;22;20031;-91
2023/04/06 09:38:57;;;;;;;22.70;14.10;;;9.70;91.70;;;;;;6229334;22;20008;-93
2023/04/06 09:41:26;;;;;;;23.05;14.60;;;9.80;91.80;;;;;;6265509;22;20022;-93
2023/04/06 09:44:25;;;;;;;26.85;15.85;;;9.80;92.20;;;;;;6254313;22;20003;-95
2023/04/06 09:46:54;;;;;;;20.33;13.80;;;9.90;92.20;;;;;;6228385;22;20423;-94
2023/04/06 09:49:21;;;;;;;24.30;15.15;;;10.00;92.30;;;;;;6261220;22;20007;-96
2023/04/06 09:51:53;;;;;;;28.30;15.88;;;10.10;92.20;;;;;;6230043;22;20015;-90
2023/04/06 09:54:22;;;;;;;24.50;14.82;;;10.10;91.70;;;;;;6253421;22;20011;-89
2023/04/06 09:57:03;;;;;;;24.92;15.15;;;10.20;91.40;;;;;;6228687;22;20307;-91
2023/04/06 09:59:44;;;;;;;;;;;10.30;92.10;;;;;;6254654;22;20003;-91
2023/04/06 10:02:25;;;;;;;21.85;14.18;;;10.30;91.20;;;;;;6253517;22;19899;-91
2023/04/06 10:04:58;;;;;;;27.70;14.77;;;10.30;92.20;;;;;;6253311;22;20008;-92
2023/04/06 10:07:28;;;;;;;23.70;14.43;;;10.40;92.40;;;;;;6253023;22;20086;-92
2023/04/06 10:09:59;;;;;;;26.95;13.43;;;10.40;92.00;;;;;;6202719;22;20055;-92
2023/04/06 10:12:24;;;;;;;23.13;14.57;;;10.40;91.50;;;;;;6203692;22;20011;-89
2023/04/06 10:14:51;;;;;;;24.67;14.13;;;10.50;91.00;;;;;;6228123;22;20030;-89
2023/04/06 10:17:16;;;;;;;21.42;13.77;;;10.50;90.90;;;;;;6252795;22;20027;-90
2023/04/06 10:20:02;;;;;;;20.88;12.90;;;10.50;90.60;;;;;;6237379;22;20000;-87
2023/04/06 10:22:50;;;;;;;23.33;12.98;;;10.50;90.90;;;;;;6263826;22;20069;-90
2023/04/06 10:25:16;;;;;;;27.63;13.60;;;10.40;91.00;;;;;;6251812;22;20430;-90
2023/04/06 10:27:42;;;;;;;21.17;13.13;;;10.50;91.40;;;;;;6202011;22;20008;-90
2023/04/06 10:30:08;;;;;;;21.67;12.70;;;10.50;91.00;;;;;;6254303;22;20031;-91
2023/04/06 10:32:38;;;;;;;22.92;12.98;;;10.40;91.40;;;;;;6231440;22;20046;-89
2023/04/06 10:35:12;;;;;;;19.98;12.50;;;10.40;91.40;;;;;;6201498;22;20018;-89
2023/04/06 10:38:02;;;;;;;26.70;12.88;;;10.40;91.30;;;;;;6258445;22;19999;-89
2023/04/06 10:40:28;;;;;;;21.58;13.23;;;10.40;92.00;;;;;;6252993;22;20082;-92
2023/04/06 10:43:07;;;;;;;20.08;12.60;;;10.40;91.70;;;;;;6203529;22;20015;-92
2023/04/06 10:45:34;;;;;;;20.95;12.27;;;10.40;92.00;;;;;;6254681;22;20023;-96
2023/04/06 10:48:00;;;;;;;19.58;12.18;;;10.40;92.10;;;;;;6257457;22;20052;-94
2023/04/06 10:50:28;;;;;;;18.20;11.63;;;10.40;92.20;;;;;;6256180;22;20008;-96
2023/04/06 10:53:01;;;;;;;20.08;12.13;;;10.50;92.40;;;;;;6255493;22;20016;-95
2023/04/06 10:55:31;;;;;;;21.45;11.73;;;10.50;92.40;;;;;;6256846;22;20012;-95
2023/04/06 10:57:57;;;;;;;20.02;12.15;;;10.60;92.70;;;;;;6258783;22;20000;-94
2023/04/06 11:00:23;;;;;;;21.52;11.70;;;10.60;93.00;;;;;;6232446;22;20014;-94
2023/04/06 11:02:49;;;;;;;18.08;11.88;;;10.70;93.20;;;;;;6229446;22;20004;-89
2023/04/06 11:05:14;;;;;;;18.60;11.50;;;10.80;92.80;;;;;;6206847;22;20066;-95
2023/04/06 11:07:41;;;;;;;18.50;11.27;;;10.80;92.90;;;;;;6231776;22;20011;-96
2023/04/06 11:10:10;;;;;;;17.52;11.75;;;10.90;93.10;;;;;;6256852;22;20004;-94
2023/04/06 11:12:36;;;;;;;16.55;11.55;;;10.90;93.40;;;;;;6230517;22;20039;-89
2023/04/06 11:15:11;;;;;;;19.42;11.77;;;10.80;93.20;;;;;;6227454;22;20011;-91
2023/04/06 11:17:37;;;;;;;15.48;11.38;;;10.80;92.90;;;;;;6202235;22;20014;-90
2023/04/06 11:20:04;;;;;;;21.38;11.77;;;10.90;93.50;;;;;;6252498;22;20020;-90
2023/04/06 11:22:31;;;;;;;18.90;11.50;;;10.90;93.10;;;;;;6202520;22;20004;-90
2023/04/06 11:25:07;;;;;;;17.48;10.93;;;10.90;94.20;;;;;;6228198;22;20007;-90
2023/04/06 11:27:34;;;;;;;16.70;10.50;;;10.90;93.80;;;;;;6228737;22;20004;-91
2023/04/06 11:30:01;;;;;;;16.20;11.30;;;11.00;94.20;;;;;;6222097;23;20022;-89
2023/04/06 11:32:31;;;;;;;15.60;10.32;;;11.10;94.80;;;;;;6222647;23;20009;-92
2023/04/06 11:34:58;;;;;;;15.27;9.55;;;11.10;94.30;;;;;;6248009;23;20008;-91
2023/04/06 11:37:26;;;;;;;13.18;8.95;;;11.10;94.70;;;;;;6221983;23;20464;-90
2023/04/06 11:39:55;;;;;;;16.20;8.52;;;11.10;95.50;;;;;;6249263;23;20006;-94
2023/04/06 11:42:25;;;;;;;12.40;8.85;;;11.10;96.00;;;;;;6250593;23;19996;-94
2023/04/06 11:44:52;;;;;;;14.73;8.60;;;11.00;97.00;;;;;;6225223;23;20008;-94
2023/04/06 11:47:19;;;;;;;16.23;9.65;;;11.00;97.60;;;;;;6250954;23;20087;-94
2023/04/06 11:49:45;;;;;;;15.50;9.25;;;10.90;99.50;;;;;;6250886;23;20007;-95
2023/04/06 11:52:30;;;;;;;14.23;8.98;;;10.80;99.80;;;;;;6226030;23;20091;-92
2023/04/06 11:54:57;;;;;;;15.05;9.48;;;10.80;99.90;;;;;;6223914;23;20335;-93
2023/04/06 11:57:27;;;;;;;13.40;9.07;;;10.70;99.90;;;;;;6224864;23;20028;-94
2023/04/06 11:59:53;;;;;;;16.23;9.38;;;10.70;99.90;;;;;;6225684;23;20423;-95
2023/04/06 12:02:21;;;;;;;13.02;8.25;;;10.70;99.90;;;;;;6223214;23;20061;-93
2023/04/06 12:04:47;;;;;;;13.60;7.50;;;10.60;99.90;;;;;;6223744;23;20489;-92
2023/04/06 12:07:13;;;;;;;12.38;7.90;;;10.40;99.90;;;;;;6223204;23;20035;-92
2023/04/06 12:09:39;;;;;;;15.60;8.27;;;10.30;99.90;;;;;;6223428;23;20039;-90
2023/04/06 12:12:05;;;;;;;13.98;7.88;;;10.20;99.90;;;;;;6248736;23;20004;-90
2023/04/06 12:14:31;;;;;;;16.80;8.05;;;10.10;99.90;;;;;;6248473;23;20450;-89
2023/04/06 12:16:57;;;;;;;14.73;8.35;;;10.10;99.90;;;;;;6223037;23;20011;-90
2023/04/06 12:19:26;;;;;;;13.93;8.88;;;10.00;99.90;;;;;;6247837;23;20079;-90
2023/04/06 12:22:30;;;;;;;15.88;8.68;;;10.00;99.90;;;;;;6222520;23;20004;-91
2023/04/06 12:24:55;;;;;;;13.48;7.85;;;10.00;99.90;;;;;;6223300;23;20435;-91
2023/04/06 12:27:21;;;;;;;11.35;7.40;;;9.80;99.90;;;;;;6223179;23;20027;-91
2023/04/06 12:29:47;;;;;;;10.88;7.22;;;9.70;99.90;;;;;;6227224;22;20016;-89
2023/04/06 12:32:13;;;;;;;11.15;6.85;;;9.70;99.90;;;;;;6260268;22;20003;-90
2023/04/06 12:34:39;;;;;;;10.90;6.85;;;9.60;99.90;;;;;;6253067;22;20070;-90
2023/04/06 12:37:05;;;;;;;10.85;6.90;;;9.60;99.90;;;;;;6250629;22;20008;-90
2023/04/06 12:39:31;;;;;;;13.63;7.35;;;9.50;99.90;;;;;;6230532;22;20004;-92
2023/04/06 12:41:57;;;;;;;11.07;6.45;;;9.50;99.90;;;;;;6208185;22;20038;-89
2023/04/06 12:44:23;;;;;;;11.50;6.85;;;9.40;99.90;;;;;;6203982;22;20004;-90
2023/04/06 12:46:50;;;;;;;10.18;6.13;;;9.40;99.90;;;;;;6228745;22;20328;-88